createdAt,value
2022-11-14T00:00:14.774Z,0.00
2022-11-14T00:01:14.766Z,0.00
2022-11-14T00:02:14.744Z,0.00
2022-11-14T00:03:14.945Z,0.00
2022-11-14T00:04:14.719Z,0.00
2022-11-14T00:05:14.708Z,0.00
2022-11-14T00:07:14.768Z,0.00
2022-11-14T00:08:14.667Z,0.00
2022-11-14T00:09:14.657Z,0.00
2022-11-14T00:10:14.642Z,0.00
2022-11-14T00:11:14.631Z,0.00
2022-11-14T00:12:14.620Z,0.00
2022-11-14T00:13:14.607Z,0.00
2022-11-14T00:14:14.593Z,0.00
2022-11-14T00:15:14.582Z,0.00
2022-11-14T00:16:14.568Z,0.00
2022-11-14T00:18:14.543Z,0.00
2022-11-14T00:19:14.655Z,0.00
2022-11-14T00:20:14.518Z,0.00
2022-11-14T00:21:14.508Z,0.00
2022-11-14T00:22:14.494Z,0.00
2022-11-14T00:23:14.483Z,0.00
2022-11-14T00:24:14.469Z,0.00
2022-11-14T00:25:14.466Z,0.00
2022-11-14T00:26:14.444Z,0.00
2022-11-14T00:27:14.434Z,0.00
2022-11-14T00:29:14.408Z,0.00
2022-11-14T00:30:14.394Z,0.00
2022-11-14T00:31:14.383Z,0.00
2022-11-14T00:32:14.368Z,0.00
2022-11-14T00:33:19.797Z,0.00
2022-11-14T00:34:16.464Z,0.00
2022-11-14T00:35:14.334Z,0.00
2022-11-14T00:36:14.321Z,0.00
2022-11-14T00:37:14.308Z,0.00
2022-11-14T00:38:14.297Z,0.00
2022-11-14T00:40:14.269Z,0.00
2022-11-14T00:41:14.259Z,0.00
2022-11-14T00:42:14.244Z,0.00
2022-11-14T00:43:14.239Z,0.00
2022-11-14T00:44:14.220Z,0.00
2022-11-14T00:45:14.207Z,0.00
2022-11-14T00:46:14.196Z,0.00
2022-11-14T00:47:14.181Z,0.00
2022-11-14T00:48:14.173Z,0.00
2022-11-14T00:49:14.156Z,0.00
2022-11-14T00:51:14.135Z,0.00
2022-11-14T00:52:14.120Z,0.00
2022-11-14T00:53:14.113Z,0.00
2022-11-14T00:54:14.094Z,0.00
2022-11-14T00:55:14.083Z,0.00
2022-11-14T00:56:14.068Z,0.00
2022-11-14T00:57:14.058Z,0.00
2022-11-14T00:58:14.042Z,0.00
2022-11-14T00:59:14.032Z,0.00
2022-11-14T01:00:14.017Z,0.00
2022-11-14T01:02:13.992Z,0.00
2022-11-14T01:03:13.980Z,0.00
2022-11-14T01:04:13.967Z,0.00
2022-11-14T01:05:13.956Z,0.00
2022-11-14T01:06:14.058Z,0.00
2022-11-14T01:07:13.930Z,0.00
2022-11-14T01:08:13.923Z,0.00
2022-11-14T01:09:13.977Z,0.00
2022-11-14T01:10:13.890Z,0.00
2022-11-14T01:11:13.880Z,0.00
2022-11-14T01:13:13.854Z,0.00
2022-11-14T01:14:13.844Z,0.00
2022-11-14T01:15:13.832Z,0.00
2022-11-14T01:16:13.814Z,0.00
2022-11-14T01:17:13.802Z,0.00
2022-11-14T01:18:13.791Z,0.00
2022-11-14T01:19:13.778Z,0.00
2022-11-14T01:20:13.763Z,0.00
2022-11-14T01:21:13.753Z,0.00
2022-11-14T01:22:13.857Z,0.00
2022-11-14T01:25:13.702Z,0.00
2022-11-14T01:26:13.687Z,0.00
2022-11-14T01:27:13.677Z,0.00
2022-11-14T01:28:13.661Z,0.00
2022-11-14T01:29:13.650Z,0.00
2022-11-14T01:30:13.646Z,0.00
2022-11-14T01:31:13.626Z,0.00
2022-11-14T01:32:13.611Z,0.00
2022-11-14T01:33:13.599Z,0.00
2022-11-14T01:35:13.574Z,0.00
2022-11-14T01:36:13.564Z,0.00
2022-11-14T01:37:13.554Z,0.00
2022-11-14T01:38:13.656Z,0.00
2022-11-14T01:39:13.524Z,0.00
2022-11-14T01:40:13.512Z,0.00
2022-11-14T01:41:13.508Z,0.00
2022-11-14T01:42:13.485Z,0.00
2022-11-14T01:43:13.522Z,0.00
2022-11-14T01:44:13.459Z,0.00
2022-11-14T01:46:13.434Z,0.00
2022-11-14T01:47:13.421Z,0.00
2022-11-14T01:48:13.410Z,0.00
2022-11-14T01:49:13.398Z,0.00
2022-11-14T01:50:13.384Z,0.00
2022-11-14T01:51:13.382Z,0.00
2022-11-14T01:52:13.357Z,0.00
2022-11-14T01:53:13.345Z,0.00
2022-11-14T01:54:13.449Z,0.00
2022-11-14T01:55:13.321Z,0.00
2022-11-14T01:57:13.297Z,0.00
2022-11-14T01:58:13.281Z,0.00
2022-11-14T01:59:13.271Z,0.00
2022-11-14T02:00:13.259Z,0.00
2022-11-14T02:01:13.328Z,0.00
2022-11-14T02:02:13.231Z,0.00
2022-11-14T02:03:13.219Z,0.00
2022-11-14T02:04:15.362Z,0.00
2022-11-14T02:05:13.193Z,0.00
2022-11-14T02:06:13.179Z,0.00
2022-11-14T02:08:13.155Z,0.00
2022-11-14T02:09:13.143Z,0.00
2022-11-14T02:10:13.248Z,0.00
2022-11-14T02:11:13.118Z,0.00
2022-11-14T02:12:13.105Z,0.00
2022-11-14T02:13:13.093Z,0.00
2022-11-14T02:14:13.078Z,0.00
2022-11-14T02:15:13.070Z,0.00
2022-11-14T02:16:13.053Z,0.00
2022-11-14T02:17:30.173Z,0.00
2022-11-14T02:19:13.023Z,0.00
2022-11-14T02:20:13.002Z,0.00
2022-11-14T02:21:12.992Z,0.00
2022-11-14T02:22:12.978Z,0.00
2022-11-14T02:23:12.965Z,0.00
2022-11-14T02:24:12.953Z,0.00
2022-11-14T02:25:12.949Z,0.00
2022-11-14T02:26:13.044Z,0.00
2022-11-14T02:27:12.918Z,0.00
2022-11-14T02:28:12.901Z,0.00
2022-11-14T02:30:12.876Z,0.00
2022-11-14T02:31:12.867Z,0.00
2022-11-14T02:32:12.851Z,0.00
2022-11-14T02:33:12.839Z,0.00
2022-11-14T02:34:12.826Z,0.00
2022-11-14T02:35:12.815Z,0.00
2022-11-14T02:36:12.810Z,0.00
2022-11-14T02:37:12.789Z,0.00
2022-11-14T02:38:12.777Z,0.00
2022-11-14T02:39:12.765Z,0.00
2022-11-14T02:41:12.740Z,0.00
2022-11-14T02:42:12.840Z,0.00
2022-11-14T02:43:12.720Z,0.00
2022-11-14T02:44:12.701Z,0.00
2022-11-14T02:45:12.688Z,0.00
2022-11-14T02:46:12.675Z,0.00
2022-11-14T02:47:12.664Z,0.00
2022-11-14T02:48:12.653Z,0.00
2022-11-14T02:49:12.639Z,0.00
2022-11-14T02:50:12.625Z,0.00
2022-11-14T02:52:12.599Z,0.00
2022-11-14T02:53:12.590Z,0.00
2022-11-14T02:54:12.579Z,0.00
2022-11-14T02:55:12.568Z,0.00
2022-11-14T02:56:12.549Z,0.00
2022-11-14T02:57:12.539Z,0.00
2022-11-14T02:58:12.641Z,0.00
2022-11-14T02:59:12.514Z,0.00
2022-11-14T03:00:15.116Z,0.00
2022-11-14T03:01:20.808Z,0.00
2022-11-14T03:03:12.463Z,0.00
2022-11-14T03:04:12.448Z,0.00
2022-11-14T03:05:12.439Z,0.00
2022-11-14T03:06:12.429Z,0.00
2022-11-14T03:07:12.431Z,0.00
2022-11-14T03:08:12.398Z,0.00
2022-11-14T03:09:12.387Z,0.00
2022-11-14T03:10:12.372Z,0.00
2022-11-14T03:11:12.363Z,0.00
2022-11-14T03:12:12.348Z,0.00
2022-11-14T03:14:12.445Z,0.00
2022-11-14T03:15:12.312Z,0.00
2022-11-14T03:16:12.298Z,0.00
2022-11-14T03:17:12.285Z,0.00
2022-11-14T03:18:12.273Z,0.00
2022-11-14T03:19:12.264Z,0.00
2022-11-14T03:20:12.248Z,0.00
2022-11-14T03:21:12.241Z,0.00
2022-11-14T03:22:12.224Z,0.00
2022-11-14T03:23:12.211Z,0.00
2022-11-14T03:25:12.187Z,0.00
2022-11-14T03:26:12.173Z,0.00
2022-11-14T03:27:12.161Z,0.00
2022-11-14T03:28:12.148Z,0.00
2022-11-14T03:29:12.141Z,0.00
2022-11-14T03:30:12.252Z,0.00
2022-11-14T03:31:12.111Z,0.00
2022-11-14T03:32:12.096Z,0.00
2022-11-14T03:33:12.088Z,0.00
2022-11-14T03:34:12.070Z,0.00
2022-11-14T03:36:12.046Z,0.00
2022-11-14T03:37:12.034Z,0.00
2022-11-14T03:38:12.021Z,0.00
2022-11-14T03:39:12.011Z,0.00
2022-11-14T03:40:11.996Z,0.00
2022-11-14T03:41:11.987Z,0.00
2022-11-14T03:42:11.972Z,0.00
2022-11-14T03:43:11.960Z,0.00
2022-11-14T03:44:11.946Z,0.00
2022-11-14T03:45:11.938Z,0.00
2022-11-14T03:47:11.912Z,0.00
2022-11-14T03:48:11.899Z,0.00
2022-11-14T03:49:11.885Z,0.00
2022-11-14T03:50:11.872Z,0.00
2022-11-14T03:51:11.862Z,0.00
2022-11-14T03:52:11.846Z,0.00
2022-11-14T03:53:11.835Z,0.00
2022-11-14T03:54:11.823Z,0.00
2022-11-14T03:55:11.816Z,0.00
2022-11-14T03:56:11.807Z,0.00
2022-11-14T03:58:11.772Z,0.00
2022-11-14T03:59:11.761Z,0.00
2022-11-14T04:00:11.748Z,0.00
2022-11-14T04:01:11.796Z,0.00
2022-11-14T04:02:11.837Z,0.00
2022-11-14T04:03:11.713Z,0.00
2022-11-14T04:04:11.696Z,0.00
2022-11-14T04:05:11.685Z,0.00
2022-11-14T04:06:11.670Z,0.00
2022-11-14T04:07:11.747Z,0.00
2022-11-14T04:09:11.634Z,0.00
2022-11-14T04:10:11.620Z,0.00
2022-11-14T04:11:11.608Z,0.00
2022-11-14T04:12:15.723Z,0.00
2022-11-14T04:13:11.586Z,0.00
2022-11-14T04:14:11.571Z,0.00
2022-11-14T04:15:11.560Z,0.00
2022-11-14T04:16:11.546Z,0.00
2022-11-14T04:17:11.535Z,0.00
2022-11-14T04:18:11.636Z,0.00
2022-11-14T04:20:11.496Z,0.00
2022-11-14T04:21:11.482Z,0.00
2022-11-14T04:22:11.472Z,0.00
2022-11-14T04:23:11.460Z,0.00
2022-11-14T04:24:11.551Z,0.00
2022-11-14T04:25:11.435Z,0.00
2022-11-14T04:26:11.429Z,0.00
2022-11-14T04:27:11.409Z,0.00
2022-11-14T04:28:11.399Z,0.00
2022-11-14T04:29:11.385Z,0.00
2022-11-14T04:31:11.358Z,0.00
2022-11-14T04:32:11.346Z,0.00
2022-11-14T04:33:11.336Z,0.00
2022-11-14T04:34:11.438Z,0.00
2022-11-14T04:35:11.318Z,0.00
2022-11-14T04:36:11.300Z,0.00
2022-11-14T04:37:11.284Z,0.00
2022-11-14T04:38:11.270Z,0.00
2022-11-14T04:39:11.258Z,0.00
2022-11-14T04:40:11.245Z,0.00
2022-11-14T04:42:11.221Z,0.00
2022-11-14T04:43:11.208Z,0.00
2022-11-14T04:44:11.195Z,0.00
2022-11-14T04:45:11.254Z,0.00
2022-11-14T04:46:11.169Z,0.00
2022-11-14T04:47:11.156Z,0.00
2022-11-14T04:48:11.151Z,0.00
2022-11-14T04:49:11.129Z,0.00
2022-11-14T04:50:11.235Z,0.00
2022-11-14T04:51:11.104Z,0.00
2022-11-14T04:53:11.079Z,0.00
2022-11-14T04:54:11.069Z,0.00
2022-11-14T04:55:11.054Z,0.00
2022-11-14T04:56:11.043Z,0.00
2022-11-14T04:57:11.029Z,0.00
2022-11-14T04:58:11.024Z,0.00
2022-11-14T04:59:11.008Z,0.00
2022-11-14T05:00:10.993Z,0.00
2022-11-14T05:01:11.179Z,0.00
2022-11-14T05:02:10.966Z,0.00
2022-11-14T05:04:10.941Z,0.00
2022-11-14T05:05:10.926Z,0.00
2022-11-14T05:06:10.943Z,0.00
2022-11-14T05:07:11.090Z,0.00
2022-11-14T05:08:10.892Z,0.00
2022-11-14T05:09:10.875Z,0.00
2022-11-14T05:10:10.865Z,0.00
2022-11-14T05:11:10.850Z,0.00
2022-11-14T05:12:10.839Z,0.00
2022-11-14T05:13:10.827Z,0.00
2022-11-14T05:15:10.799Z,0.00
2022-11-14T05:16:10.790Z,0.00
2022-11-14T05:17:10.774Z,0.00
2022-11-14T05:18:10.764Z,0.00
2022-11-14T05:19:10.749Z,0.00
2022-11-14T05:20:10.737Z,0.00
2022-11-14T05:21:10.724Z,0.00
2022-11-14T05:22:10.737Z,0.00
2022-11-14T05:23:10.700Z,0.00
2022-11-14T05:24:10.688Z,0.00
2022-11-14T05:26:10.673Z,0.00
2022-11-14T05:27:10.649Z,0.00
2022-11-14T05:28:10.639Z,0.00
2022-11-14T05:29:10.625Z,0.00
2022-11-14T05:30:10.612Z,0.00
2022-11-14T05:31:10.599Z,0.00
2022-11-14T05:32:15.998Z,0.00
2022-11-14T05:33:10.574Z,0.00
2022-11-14T05:34:10.564Z,0.00
2022-11-14T05:35:10.550Z,0.00
2022-11-14T05:37:10.524Z,0.00
2022-11-14T05:38:10.542Z,0.00
2022-11-14T05:39:10.501Z,0.00
2022-11-14T05:40:10.489Z,0.00
2022-11-14T05:41:10.475Z,0.00
2022-11-14T05:42:10.465Z,0.00
2022-11-14T05:43:10.453Z,0.00
2022-11-14T05:44:10.441Z,0.00
2022-11-14T05:45:10.428Z,0.00
2022-11-14T05:46:10.420Z,0.00
2022-11-14T05:48:10.395Z,0.00
2022-11-14T05:49:10.382Z,0.00
2022-11-14T05:50:10.371Z,0.00
2022-11-14T05:51:10.357Z,0.00
2022-11-14T05:52:10.344Z,0.00
2022-11-14T05:53:10.328Z,0.00
2022-11-14T05:54:10.341Z,0.00
2022-11-14T05:55:10.302Z,0.00
2022-11-14T05:56:10.290Z,0.00
2022-11-14T05:57:10.278Z,0.00
2022-11-14T05:59:10.252Z,0.00
2022-11-14T06:00:10.241Z,0.00
2022-11-14T06:01:10.222Z,0.00
2022-11-14T06:02:10.267Z,0.00
2022-11-14T06:03:10.206Z,0.00
2022-11-14T06:04:10.186Z,0.00
2022-11-14T06:05:10.171Z,0.00
2022-11-14T06:06:10.171Z,0.00
2022-11-14T06:07:10.228Z,0.00
2022-11-14T06:08:10.134Z,0.00
2022-11-14T06:10:10.133Z,0.00
2022-11-14T06:11:10.092Z,4.00
2022-11-14T06:12:10.080Z,0.00
2022-11-14T06:13:10.066Z,0.00
2022-11-14T06:14:11.258Z,4.00
2022-11-14T06:15:10.049Z,0.00
2022-11-14T06:16:10.029Z,0.00
2022-11-14T06:17:10.014Z,4.00
2022-11-14T06:18:10.002Z,4.00
2022-11-14T06:19:09.990Z,4.00
2022-11-14T06:21:09.962Z,4.00
2022-11-14T06:22:09.950Z,4.00
2022-11-14T06:23:09.936Z,8.00
2022-11-14T06:24:09.924Z,8.00
2022-11-14T06:25:09.907Z,8.00
2022-11-14T06:26:09.922Z,8.00
2022-11-14T06:27:09.882Z,16.00
2022-11-14T06:28:09.872Z,16.00
2022-11-14T06:29:09.855Z,16.00
2022-11-14T06:30:09.843Z,20.00
2022-11-14T06:32:09.830Z,20.00
2022-11-14T06:33:09.803Z,24.00
2022-11-14T06:34:09.792Z,28.00
2022-11-14T06:35:09.782Z,32.00
2022-11-14T06:36:09.772Z,36.00
2022-11-14T06:37:09.753Z,40.00
2022-11-14T06:38:09.746Z,44.00
2022-11-14T06:39:09.723Z,48.00
2022-11-14T06:40:09.715Z,56.00
2022-11-14T06:41:09.698Z,64.00
2022-11-14T06:43:09.671Z,76.00
2022-11-14T06:44:09.663Z,84.00
2022-11-14T06:45:09.648Z,92.00
2022-11-14T06:46:09.635Z,100.00
2022-11-14T06:47:09.621Z,128.00
2022-11-14T06:48:09.611Z,144.00
2022-11-14T06:49:09.593Z,144.00
2022-11-14T06:50:09.581Z,148.00
2022-11-14T06:51:09.568Z,156.00
2022-11-14T06:52:09.559Z,164.00
2022-11-14T06:54:09.529Z,184.00
2022-11-14T06:55:09.513Z,212.00
2022-11-14T06:56:09.502Z,228.00
2022-11-14T06:57:09.487Z,236.00
2022-11-14T06:58:09.500Z,256.00
2022-11-14T06:59:09.462Z,300.00
2022-11-14T07:00:09.450Z,356.00
2022-11-14T07:01:09.438Z,408.00
2022-11-14T07:02:09.425Z,492.00
2022-11-14T07:03:09.526Z,600.00
2022-11-14T07:05:09.383Z,848.00
2022-11-14T07:06:09.375Z,968.00
2022-11-14T07:07:09.452Z,1068.00
2022-11-14T07:08:09.346Z,1100.00
2022-11-14T07:09:09.332Z,1120.00
2022-11-14T07:10:09.321Z,1108.00
2022-11-14T07:11:09.306Z,1064.00
2022-11-14T07:12:09.296Z,1104.00
2022-11-14T07:13:09.289Z,1100.00
2022-11-14T07:14:09.293Z,948.00
2022-11-14T07:16:09.246Z,720.00
2022-11-14T07:17:09.231Z,720.00
2022-11-14T07:18:09.222Z,708.00
2022-11-14T07:19:09.224Z,676.00
2022-11-14T07:20:09.194Z,664.00
2022-11-14T07:21:09.180Z,676.00
2022-11-14T07:22:09.168Z,728.00
2022-11-14T07:23:09.154Z,792.00
2022-11-14T07:24:09.144Z,856.00
2022-11-14T07:25:09.130Z,936.00
2022-11-14T07:27:09.104Z,944.00
2022-11-14T07:28:09.092Z,960.00
2022-11-14T07:29:09.079Z,968.00
2022-11-14T07:30:09.090Z,988.00
2022-11-14T07:31:09.055Z,1000.00
2022-11-14T07:32:09.041Z,976.00
2022-11-14T07:33:09.035Z,940.00
2022-11-14T07:34:09.017Z,916.00
2022-11-14T07:35:09.001Z,956.00
2022-11-14T07:36:08.996Z,1040.00
2022-11-14T07:39:08.949Z,960.00
2022-11-14T07:40:08.941Z,916.00
2022-11-14T07:41:08.925Z,1020.00
2022-11-14T07:42:08.913Z,1124.00
2022-11-14T07:43:08.901Z,1252.00
2022-11-14T07:44:08.890Z,1432.00
2022-11-14T07:45:08.875Z,1692.00
2022-11-14T07:46:08.901Z,1808.00
2022-11-14T07:47:08.854Z,1636.00
2022-11-14T07:49:08.824Z,1368.00
2022-11-14T07:50:08.814Z,1580.00
2022-11-14T07:51:08.799Z,1832.00
2022-11-14T07:52:08.788Z,2028.00
2022-11-14T07:53:08.773Z,2100.00
2022-11-14T07:54:08.762Z,2148.00
2022-11-14T07:55:08.751Z,2476.00
2022-11-14T07:56:08.738Z,3200.00
2022-11-14T07:57:08.723Z,3696.00
2022-11-14T07:58:08.710Z,3928.00
2022-11-14T08:00:08.685Z,3824.00
2022-11-14T08:01:08.727Z,3680.00
2022-11-14T08:02:08.689Z,3648.00
2022-11-14T08:03:08.645Z,3508.00
2022-11-14T08:04:08.634Z,2860.00
2022-11-14T08:05:08.619Z,2228.00
2022-11-14T08:06:08.609Z,1952.00
2022-11-14T08:07:08.685Z,1876.00
2022-11-14T08:08:08.584Z,1948.00
2022-11-14T08:09:08.569Z,2116.00
2022-11-14T08:11:08.549Z,2220.00
2022-11-14T08:12:08.531Z,1944.00
2022-11-14T08:13:30.842Z,1708.00
2022-11-14T08:14:10.505Z,1660.00
2022-11-14T08:15:08.491Z,1676.00
2022-11-14T08:16:12.980Z,1700.00
2022-11-14T08:17:08.465Z,1704.00
2022-11-14T08:18:08.489Z,1888.00
2022-11-14T08:19:08.439Z,2116.00
2022-11-14T08:20:08.429Z,2236.00
2022-11-14T08:22:08.403Z,2652.00
2022-11-14T08:23:08.389Z,2560.00
2022-11-14T08:24:08.379Z,2424.00
2022-11-14T08:25:08.362Z,2468.00
2022-11-14T08:26:08.352Z,2472.00
2022-11-14T08:27:08.339Z,2388.00
2022-11-14T08:28:08.326Z,2536.00
2022-11-14T08:29:08.319Z,2792.00
2022-11-14T08:30:08.315Z,3068.00
2022-11-14T08:31:08.285Z,3080.00
2022-11-14T08:33:08.263Z,3404.00
2022-11-14T08:34:08.271Z,3432.00
2022-11-14T08:35:08.235Z,3360.00
2022-11-14T08:36:08.219Z,3328.00
2022-11-14T08:37:08.208Z,3320.00
2022-11-14T08:38:08.193Z,3336.00
2022-11-14T08:39:08.184Z,3144.00
2022-11-14T08:40:08.168Z,2792.00
2022-11-14T08:41:08.159Z,2944.00
2022-11-14T08:42:08.143Z,3180.00
2022-11-14T08:44:08.115Z,4652.00
2022-11-14T08:45:08.106Z,5316.00
2022-11-14T08:46:08.091Z,4764.00
2022-11-14T08:47:08.081Z,4180.00
2022-11-14T08:48:08.066Z,4636.00
2022-11-14T08:49:08.055Z,5508.00
2022-11-14T08:50:08.068Z,5444.00
2022-11-14T08:51:08.028Z,4580.00
2022-11-14T08:52:11.220Z,4180.00
2022-11-14T08:54:07.991Z,4056.00
2022-11-14T08:55:07.981Z,4272.00
2022-11-14T08:56:07.967Z,4672.00
2022-11-14T08:57:07.955Z,4680.00
2022-11-14T08:58:07.941Z,4588.00
2022-11-14T08:59:07.931Z,4200.00
2022-11-14T09:00:07.916Z,3648.00
2022-11-14T09:01:07.904Z,3316.00
2022-11-14T09:02:07.889Z,3276.00
2022-11-14T09:03:07.987Z,3084.00
2022-11-14T09:05:07.856Z,2604.00
2022-11-14T09:06:07.863Z,2456.00
2022-11-14T09:07:07.894Z,2288.00
2022-11-14T09:08:07.815Z,2164.00
2022-11-14T09:09:07.803Z,2140.00
2022-11-14T09:10:07.792Z,2136.00
2022-11-14T09:11:10.095Z,2152.00
2022-11-14T09:12:07.764Z,2428.00
2022-11-14T09:13:07.752Z,2596.00
2022-11-14T09:14:07.738Z,2752.00
2022-11-14T09:16:07.713Z,2832.00
2022-11-14T09:17:07.700Z,2772.00
2022-11-14T09:18:07.686Z,2896.00
2022-11-14T09:19:07.675Z,3372.00
2022-11-14T09:20:07.662Z,3656.00
2022-11-14T09:21:07.650Z,3224.00
2022-11-14T09:22:07.659Z,3400.00
2022-11-14T09:23:07.629Z,3888.00
2022-11-14T09:24:07.609Z,3684.00
2022-11-14T09:25:07.596Z,2848.00
2022-11-14T09:27:07.570Z,2328.00
2022-11-14T09:28:07.555Z,2772.00
2022-11-14T09:29:07.552Z,2996.00
2022-11-14T09:30:07.528Z,3036.00
2022-11-14T09:31:07.518Z,3248.00
2022-11-14T09:32:07.502Z,3304.00
2022-11-14T09:33:11.657Z,2964.00
2022-11-14T09:34:07.476Z,2972.00
2022-11-14T09:35:07.463Z,3340.00
2022-11-14T09:36:07.450Z,2580.00
2022-11-14T09:38:07.450Z,2708.00
2022-11-14T09:39:07.416Z,3280.00
2022-11-14T09:40:07.402Z,3648.00
2022-11-14T09:41:07.385Z,3560.00
2022-11-14T09:42:07.400Z,3296.00
2022-11-14T09:43:07.367Z,3384.00
2022-11-14T09:44:07.342Z,3776.00
2022-11-14T09:45:07.330Z,3804.00
2022-11-14T09:46:07.315Z,3704.00
2022-11-14T09:47:07.304Z,3716.00
2022-11-14T09:49:07.277Z,5408.00
2022-11-14T09:50:07.262Z,6112.00
2022-11-14T09:51:07.251Z,6408.00
2022-11-14T09:52:07.237Z,5396.00
2022-11-14T09:53:07.224Z,4684.00
2022-11-14T09:54:07.235Z,4548.00
2022-11-14T09:55:07.200Z,4844.00
2022-11-14T09:56:07.193Z,5164.00
2022-11-14T09:57:07.173Z,6032.00
2022-11-14T09:58:07.157Z,5820.00
2022-11-14T10:00:07.130Z,3632.00
2022-11-14T10:01:09.633Z,2988.00
2022-11-14T10:02:07.195Z,2848.00
2022-11-14T10:03:07.095Z,3108.00
2022-11-14T10:04:09.483Z,3336.00
2022-11-14T10:05:07.071Z,4140.00
2022-11-14T10:06:07.054Z,4408.00
2022-11-14T10:07:07.126Z,3872.00
2022-11-14T10:08:07.028Z,3076.00
2022-11-14T10:09:07.019Z,2460.00
2022-11-14T10:11:06.995Z,2112.00
2022-11-14T10:12:06.982Z,2396.00
2022-11-14T10:13:06.968Z,2760.00
2022-11-14T10:14:06.952Z,3036.00
2022-11-14T10:16:06.926Z,2812.00
2022-11-14T10:17:10.596Z,2936.00
2022-11-14T10:18:06.904Z,3260.00
2022-11-14T10:19:10.522Z,3444.00
2022-11-14T10:20:06.873Z,3760.00
2022-11-14T10:22:06.849Z,5416.00
2022-11-14T10:23:06.842Z,6448.00
2022-11-14T10:24:06.823Z,7288.00
2022-11-14T10:25:06.812Z,8624.00
2022-11-14T10:26:06.958Z,12024.00
2022-11-14T10:27:06.789Z,19712.00
2022-11-14T10:28:06.772Z,38336.00
2022-11-14T10:29:06.760Z,12052.00
2022-11-14T10:30:06.747Z,6840.00
2022-11-14T10:31:06.735Z,8844.00
2022-11-14T10:33:06.714Z,9132.00
2022-11-14T10:34:06.692Z,8796.00
2022-11-14T10:35:06.682Z,8524.00
2022-11-14T10:36:06.666Z,7348.00
2022-11-14T10:37:06.658Z,6348.00
2022-11-14T10:38:06.642Z,6372.00
2022-11-14T10:39:06.630Z,7044.00
2022-11-14T10:40:06.623Z,7432.00
2022-11-14T10:41:06.606Z,7380.00
2022-11-14T10:42:08.005Z,8092.00
2022-11-14T10:44:06.568Z,13344.00
2022-11-14T10:45:06.559Z,9108.00
2022-11-14T10:46:06.536Z,5812.00
2022-11-14T10:47:06.529Z,4688.00
2022-11-14T10:48:06.515Z,5004.00
2022-11-14T10:49:06.501Z,4400.00
2022-11-14T10:50:06.485Z,4088.00
2022-11-14T10:51:06.478Z,4072.00
2022-11-14T10:52:06.469Z,4748.00
2022-11-14T10:53:06.448Z,4760.00
2022-11-14T10:55:06.424Z,4856.00
2022-11-14T10:56:06.439Z,4928.00
2022-11-14T10:57:06.398Z,5304.00
2022-11-14T10:58:06.406Z,6116.00
2022-11-14T10:59:06.370Z,6700.00
2022-11-14T11:00:06.356Z,5700.00
2022-11-14T11:01:06.387Z,5468.00
2022-11-14T11:02:06.330Z,4908.00
2022-11-14T11:03:06.318Z,4336.00
2022-11-14T11:04:06.340Z,4400.00
2022-11-14T11:06:06.280Z,4800.00
2022-11-14T11:07:06.329Z,5072.00
2022-11-14T11:08:41.955Z,6548.00
2022-11-14T11:09:08.268Z,7944.00
2022-11-14T11:10:06.224Z,7920.00
2022-11-14T11:11:06.214Z,8320.00
2022-11-14T11:12:06.254Z,9412.00
2022-11-14T11:13:06.280Z,11252.00
2022-11-14T11:14:06.259Z,29312.00
2022-11-14T11:15:06.162Z,26848.00
2022-11-14T11:17:06.136Z,9440.00
2022-11-14T11:18:06.125Z,8308.00
2022-11-14T11:19:06.113Z,7320.00
2022-11-14T11:20:07.590Z,7356.00
2022-11-14T11:21:06.153Z,8504.00
2022-11-14T11:22:06.072Z,9820.00
2022-11-14T11:23:06.062Z,10148.00
2022-11-14T11:24:06.046Z,11316.00
2022-11-14T11:25:06.034Z,12912.00
2022-11-14T11:26:06.019Z,14792.00
2022-11-14T11:28:05.994Z,31392.00
2022-11-14T11:29:05.982Z,54816.00
2022-11-14T11:30:05.995Z,60416.00
2022-11-14T11:31:05.955Z,64000.00
2022-11-14T11:32:05.944Z,67232.00
2022-11-14T11:33:05.930Z,71392.00
2022-11-14T11:34:05.918Z,27552.00
2022-11-14T11:35:05.905Z,39136.00
2022-11-14T11:36:05.888Z,67808.00
2022-11-14T11:37:05.878Z,78112.00
2022-11-14T11:39:05.853Z,42336.00
2022-11-14T11:40:05.840Z,61728.00
2022-11-14T11:41:08.991Z,21696.00
2022-11-14T11:42:10.215Z,16552.00
2022-11-14T11:43:37.273Z,15436.00
2022-11-14T11:44:07.787Z,13056.00
2022-11-14T11:45:05.776Z,12184.00
2022-11-14T11:46:05.786Z,12060.00
2022-11-14T11:47:05.750Z,12940.00
2022-11-14T11:48:05.734Z,13084.00
2022-11-14T11:50:05.708Z,12784.00
2022-11-14T11:51:05.699Z,13316.00
2022-11-14T11:52:05.705Z,17568.00
2022-11-14T11:53:05.673Z,15200.00
2022-11-14T11:54:05.657Z,13660.00
2022-11-14T11:55:05.653Z,11400.00
2022-11-14T11:56:05.633Z,10956.00
2022-11-14T11:57:05.620Z,9312.00
2022-11-14T11:58:05.608Z,9356.00
2022-11-14T11:59:05.595Z,9052.00
2022-11-14T12:01:05.582Z,6480.00
2022-11-14T12:02:05.629Z,6600.00
2022-11-14T12:03:05.628Z,6636.00
2022-11-14T12:04:05.606Z,5792.00
2022-11-14T12:05:05.514Z,6192.00
2022-11-14T12:06:05.498Z,6528.00
2022-11-14T12:07:05.606Z,8016.00
2022-11-14T12:08:05.474Z,9356.00
2022-11-14T12:09:05.466Z,8564.00
2022-11-14T12:10:12.599Z,9476.00
2022-11-14T12:12:05.423Z,5680.00
2022-11-14T12:13:05.418Z,5740.00
2022-11-14T12:14:05.399Z,5748.00
2022-11-14T12:15:05.389Z,5220.00
2022-11-14T12:16:10.167Z,5440.00
2022-11-14T12:17:05.361Z,6496.00
2022-11-14T12:18:05.374Z,6500.00
2022-11-14T12:19:05.339Z,7956.00
2022-11-14T12:20:05.322Z,8372.00
2022-11-14T12:21:05.309Z,7628.00
2022-11-14T12:23:05.288Z,8936.00
2022-11-14T12:24:05.271Z,7900.00
2022-11-14T12:25:05.259Z,8992.00
2022-11-14T12:26:05.244Z,10628.00
2022-11-14T12:27:05.350Z,9048.00
2022-11-14T12:28:05.342Z,8488.00
2022-11-14T12:29:05.218Z,7440.00
2022-11-14T12:30:05.227Z,6516.00
2022-11-14T12:31:05.181Z,5492.00
2022-11-14T12:32:05.170Z,4624.00
2022-11-14T12:34:05.167Z,3988.00
2022-11-14T12:35:05.265Z,3812.00
2022-11-14T12:36:05.118Z,3740.00
2022-11-14T12:37:05.195Z,3708.00
2022-11-14T12:38:05.091Z,3708.00
2022-11-14T12:39:05.080Z,3648.00
2022-11-14T12:40:05.063Z,3300.00
2022-11-14T12:42:05.036Z,3140.00
2022-11-14T12:43:05.025Z,3344.00
2022-11-14T12:45:05.000Z,5416.00
2022-11-14T12:46:04.985Z,13036.00
2022-11-14T12:47:04.979Z,5136.00
2022-11-14T12:48:04.961Z,4096.00
2022-11-14T12:49:04.947Z,3544.00
2022-11-14T12:50:04.960Z,3412.00
2022-11-14T12:51:04.957Z,3476.00
2022-11-14T12:52:04.911Z,3732.00
2022-11-14T12:53:04.896Z,4096.00
2022-11-14T12:54:04.883Z,5008.00
2022-11-14T12:56:04.858Z,4832.00
2022-11-14T12:57:04.842Z,4208.00
2022-11-14T12:58:04.830Z,3088.00
2022-11-14T12:59:04.817Z,2608.00
2022-11-14T13:00:04.807Z,2572.00
2022-11-14T13:01:04.829Z,2632.00
2022-11-14T13:02:04.780Z,2564.00
2022-11-14T13:03:04.765Z,2480.00
2022-11-14T13:04:04.755Z,2360.00
2022-11-14T13:05:04.743Z,2304.00
2022-11-14T13:07:04.754Z,2068.00
2022-11-14T13:08:04.703Z,1880.00
2022-11-14T13:09:04.689Z,1756.00
2022-11-14T13:10:04.678Z,1576.00
2022-11-14T13:11:04.661Z,1276.00
2022-11-14T13:12:04.659Z,1096.00
2022-11-14T13:13:04.637Z,1020.00
2022-11-14T13:14:04.828Z,984.00
2022-11-14T13:15:04.611Z,928.00
2022-11-14T13:16:04.600Z,888.00
2022-11-14T13:18:04.575Z,828.00
2022-11-14T13:19:04.560Z,812.00
2022-11-14T13:20:04.569Z,844.00
2022-11-14T13:21:04.534Z,892.00
2022-11-14T13:22:04.550Z,928.00
2022-11-14T13:23:04.509Z,904.00
2022-11-14T13:24:04.498Z,832.00
2022-11-14T13:25:04.482Z,836.00
2022-11-14T13:26:04.471Z,948.00
2022-11-14T13:27:04.455Z,1176.00
2022-11-14T13:29:04.431Z,1404.00
2022-11-14T13:30:04.416Z,1356.00
2022-11-14T13:31:04.404Z,1220.00
2022-11-14T13:32:04.393Z,1092.00
2022-11-14T13:33:04.377Z,1032.00
2022-11-14T13:34:04.365Z,992.00
2022-11-14T13:35:04.353Z,944.00
2022-11-14T13:36:05.660Z,900.00
2022-11-14T13:37:04.327Z,884.00
2022-11-14T13:38:04.336Z,896.00
2022-11-14T13:40:04.293Z,1036.00
2022-11-14T13:41:04.272Z,1144.00
2022-11-14T13:42:04.259Z,1244.00
2022-11-14T13:43:04.247Z,1156.00
2022-11-14T13:44:04.233Z,996.00
2022-11-14T13:45:04.219Z,932.00
2022-11-14T13:46:04.206Z,912.00
2022-11-14T13:47:04.194Z,852.00
2022-11-14T13:48:04.180Z,792.00
2022-11-14T13:49:04.165Z,728.00
2022-11-14T13:51:28.526Z,692.00
2022-11-14T13:52:04.129Z,684.00
2022-11-14T13:53:04.113Z,696.00
2022-11-14T13:54:04.132Z,736.00
2022-11-14T13:55:04.088Z,748.00
2022-11-14T13:56:04.075Z,712.00
2022-11-14T13:57:04.063Z,660.00
2022-11-14T13:58:04.050Z,640.00
2022-11-14T13:59:04.035Z,624.00